Not for real navigation | The accuracy of this data is not assured | See disclaimer for more information
ICAO NAME COUNTRY WIND Kt GUST Kt VIS TEMP/DEW BARO
LIVF Frontone Italy 3 0 200 3/2 30.03
LIVF 310555Z 32003KT 0200 -RA FG VV/// 03/02 Q1017 RMK MON INVIS VAL INVIS VIS MIN 0200
KSXT SEXTON SUMMIT OR United States 10 19 400 2/2 30.03
KSXT 310656Z AUTO 19010G19KT 150V210 0.25SM -RA FG VV002 02/02 A3003 RMK AO2 PK WND 21026/0616 UPE11RAB11 SLP181 P0004 I1000 T00170017 $
KMNZ 3 0 800 14/14 29.95
KMNZ 310655Z AUTO 02003KT 0.5SM +RA OVC002 14/14 A2995 RMK AO2 T01380138
CYYB North Bay, Ont. Canada 7 15 1600 2/2 30.01
CYYB 310622Z AUTO 02007G15KT 350V060 1SM R08/P6000FT/D -RA BR OVC004 02/02 A3001 RMK SLP178
KJAC Jackson, Jackson Hole Airport WY United States 18 0 1600 0/-1 30.02
KJAC 310656Z AUTO 19018KT 1SM -SN BR BKN006 OVC010 00/M01 A3002 RMK AO2 CIG 005V008 SLP184 P0001 T00001011 400391033 FZRANO

Show more

Close Menu